sensor_id;sensor_type;location;lat;lon;timestamp;pressure;altitude;pressure_sealevel;temperature;humidity
13235;BME280;6683;48.506;9.050;2023-04-01T00:00:05;96849.75;;;11.87;71.79
13235;BME280;6683;48.506;9.050;2023-04-01T00:03:07;96844.47;;;11.87;71.71
13235;BME280;6683;48.506;9.050;2023-04-01T00:06:12;96841.47;;;11.84;71.75
13235;BME280;6683;48.506;9.050;2023-04-01T00:09:16;96846.19;;;11.82;71.93
13235;BME280;6683;48.506;9.050;2023-04-01T00:12:18;96837.69;;;11.80;72.03
13235;BME280;6683;48.506;9.050;2023-04-01T00:15:22;96847.44;;;11.79;72.04
13235;BME280;6683;48.506;9.050;2023-04-01T00:18:25;96841.34;;;11.79;72.16
13235;BME280;6683;48.506;9.050;2023-04-01T00:21:27;96833.41;;;11.79;71.81
13235;BME280;6683;48.506;9.050;2023-04-01T00:24:29;96830.56;;;11.80;72.03
13235;BME280;6683;48.506;9.050;2023-04-01T00:27:32;96829.50;;;11.81;72.03
13235;BME280;6683;48.506;9.050;2023-04-01T00:30:35;96839.06;;;11.82;71.84
13235;BME280;6683;48.506;9.050;2023-04-01T00:33:39;96825.84;;;11.82;71.74
13235;BME280;6683;48.506;9.050;2023-04-01T00:36:42;96832.16;;;11.81;72.03
13235;BME280;6683;48.506;9.050;2023-04-01T00:39:44;96831.59;;;11.79;71.88
13235;BME280;6683;48.506;9.050;2023-04-01T00:42:46;96836.88;;;11.79;71.93
13235;BME280;6683;48.506;9.050;2023-04-01T00:45:50;96837.69;;;11.80;72.09
13235;BME280;6683;48.506;9.050;2023-04-01T00:48:54;96822.84;;;11.79;71.98
13235;BME280;6683;48.506;9.050;2023-04-01T00:52:00;96827.34;;;11.78;71.98
13235;BME280;6683;48.506;9.050;2023-04-01T00:55:05;96820.19;;;11.79;71.88
13235;BME280;6683;48.506;9.050;2023-04-01T00:58:13;96832.84;;;11.77;71.86
13235;BME280;6683;48.506;9.050;2023-04-01T01:01:19;96823.53;;;11.74;72.00
13235;BME280;6683;48.506;9.050;2023-04-01T01:04:25;96830.66;;;11.74;71.80
13235;BME280;6683;48.506;9.050;2023-04-01T01:07:36;96832.50;;;11.73;72.10
13235;BME280;6683;48.506;9.050;2023-04-01T01:10:42;96825.59;;;11.72;71.70
13235;BME280;6683;48.506;9.050;2023-04-01T01:13:55;96834.56;;;11.71;71.82
13235;BME280;6683;48.506;9.050;2023-04-01T01:17:11;96830.53;;;11.69;71.99
13235;BME280;6683;48.506;9.050;2023-04-01T01:20:38;96820.19;;;11.67;71.99
13235;BME280;6683;48.506;9.050;2023-04-01T01:24:31;96838.69;;;11.67;72.07
13235;BME280;6683;48.506;9.050;2023-04-01T01:27:49;96841.09;;;11.69;72.18
13235;BME280;6683;48.506;9.050;2023-04-01T01:31:03;96832.34;;;11.68;71.99
13235;BME280;6683;48.506;9.050;2023-04-01T01:34:17;96833.75;;;11.71;71.61
13235;BME280;6683;48.506;9.050;2023-04-01T01:37:25;96832.94;;;11.70;71.87
13235;BME280;6683;48.506;9.050;2023-04-01T01:40:33;96835.56;;;11.70;71.99
13235;BME280;6683;48.506;9.050;2023-04-01T01:43:39;96834.56;;;11.71;71.68
13235;BME280;6683;48.506;9.050;2023-04-01T01:46:45;96837.19;;;11.71;71.66
13235;BME280;6683;48.506;9.050;2023-04-01T01:49:48;96837.78;;;11.73;71.48
13235;BME280;6683;48.506;9.050;2023-04-01T01:53:03;96845.94;;;11.72;71.88
13235;BME280;6683;48.506;9.050;2023-04-01T01:56:06;96843.88;;;11.74;71.55
13235;BME280;6683;48.506;9.050;2023-04-01T01:59:10;96840.19;;;11.75;71.50
13235;BME280;6683;48.506;9.050;2023-04-01T02:02:14;96839.97;;;11.76;71.39
13235;BME280;6683;48.506;9.050;2023-04-01T02:05:20;96841.81;;;11.76;71.59
13235;BME280;6683;48.506;9.050;2023-04-01T02:08:28;96841.81;;;11.76;71.64
13235;BME280;6683;48.506;9.050;2023-04-01T02:11:37;96842.81;;;11.75;71.42
13235;BME280;6683;48.506;9.050;2023-04-01T02:14:45;96839.41;;;11.74;71.32
13235;BME280;6683;48.506;9.050;2023-04-01T02:17:50;96839.41;;;11.74;71.40
13235;BME280;6683;48.506;9.050;2023-04-01T02:20:53;96846.97;;;11.71;71.07
13235;BME280;6683;48.506;9.050;2023-04-01T02:23:58;96847.44;;;11.68;71.29
13235;BME280;6683;48.506;9.050;2023-04-01T02:27:03;96851.09;;;11.67;71.19
13235;BME280;6683;48.506;9.050;2023-04-01T02:30:07;96852.31;;;11.64;71.24
13235;BME280;6683;48.506;9.050;2023-04-01T02:33:10;96854.16;;;11.64;71.34
13235;BME280;6683;48.506;9.050;2023-04-01T02:36:14;96856.22;;;11.62;71.38
13235;BME280;6683;48.506;9.050;2023-04-01T02:39:19;96861.13;;;11.58;71.37
13235;BME280;6683;48.506;9.050;2023-04-01T02:42:21;96865.84;;;11.56;71.35
13235;BME280;6683;48.506;9.050;2023-04-01T02:45:24;96857.34;;;11.54;71.09
13235;BME280;6683;48.506;9.050;2023-04-01T02:48:26;96845.38;;;11.52;70.96
13235;BME280;6683;48.506;9.050;2023-04-01T02:51:28;96846.06;;;11.47;71.37
13235;BME280;6683;48.506;9.050;2023-04-01T02:54:32;96843.06;;;11.44;70.97
13235;BME280;6683;48.506;9.050;2023-04-01T02:57:34;96835.78;;;11.39;71.08
13235;BME280;6683;48.506;9.050;2023-04-01T03:00:37;96836.50;;;11.35;71.03
13235;BME280;6683;48.506;9.050;2023-04-01T03:03:40;96836.34;;;11.30;71.36
13235;BME280;6683;48.506;9.050;2023-04-01T03:06:42;96840.47;;;11.25;70.86
13235;BME280;6683;48.506;9.050;2023-04-01T03:09:46;96841.34;;;11.19;70.98
13235;BME280;6683;48.506;9.050;2023-04-01T03:12:49;96850.75;;;11.15;70.76
13235;BME280;6683;48.506;9.050;2023-04-01T03:15:51;96846.13;;;11.11;71.05
13235;BME280;6683;48.506;9.050;2023-04-01T03:18:53;96849.44;;;11.06;71.00
13235;BME280;6683;48.506;9.050;2023-04-01T03:21:59;96856.19;;;11.02;70.91
13235;BME280;6683;48.506;9.050;2023-04-01T03:25:04;96853.97;;;10.99;71.02
13235;BME280;6683;48.506;9.050;2023-04-01T03:28:06;96851.81;;;10.96;70.95
13235;BME280;6683;48.506;9.050;2023-04-01T03:31:09;96856.50;;;10.94;71.19
13235;BME280;6683;48.506;9.050;2023-04-01T03:34:12;96858.97;;;10.89;71.25
13235;BME280;6683;48.506;9.050;2023-04-01T03:37:15;96854.34;;;10.85;71.13
13235;BME280;6683;48.506;9.050;2023-04-01T03:40:20;96854.81;;;10.82;71.32
13235;BME280;6683;48.506;9.050;2023-04-01T03:43:22;96847.31;;;10.79;71.04
13235;BME280;6683;48.506;9.050;2023-04-01T03:46:25;96850.41;;;10.76;70.85
13235;BME280;6683;48.506;9.050;2023-04-01T03:49:29;96849.03;;;10.73;70.96
13235;BME280;6683;48.506;9.050;2023-04-01T03:52:33;96839.72;;;10.71;71.38
13235;BME280;6683;48.506;9.050;2023-04-01T03:55:37;96839.94;;;10.69;71.16
13235;BME280;6683;48.506;9.050;2023-04-01T03:58:40;96832.59;;;10.71;71.53
13235;BME280;6683;48.506;9.050;2023-04-01T04:01:43;96835.81;;;10.73;71.77
13235;BME280;6683;48.506;9.050;2023-04-01T04:04:45;96830.53;;;10.73;71.13
13235;BME280;6683;48.506;9.050;2023-04-01T04:07:48;96825.28;;;10.73;71.28
13235;BME280;6683;48.506;9.050;2023-04-01T04:10:56;96812.31;;;10.72;71.31
13235;BME280;6683;48.506;9.050;2023-04-01T04:13:59;96814.94;;;10.72;71.43
13235;BME280;6683;48.506;9.050;2023-04-01T04:17:01;96819.41;;;10.71;71.33
13235;BME280;6683;48.506;9.050;2023-04-01T04:20:05;96819.63;;;10.70;71.33
13235;BME280;6683;48.506;9.050;2023-04-01T04:23:08;96814.78;;;10.67;71.15
13235;BME280;6683;48.506;9.050;2023-04-01T04:26:13;96809.75;;;10.65;71.45
13235;BME280;6683;48.506;9.050;2023-04-01T04:29:17;96810.56;;;10.66;71.40
13235;BME280;6683;48.506;9.050;2023-04-01T04:32:19;96818.25;;;10.67;71.69
13235;BME280;6683;48.506;9.050;2023-04-01T04:35:21;96812.38;;;10.65;71.42
13235;BME280;6683;48.506;9.050;2023-04-01T04:38:24;96816.63;;;10.66;71.62
13235;BME280;6683;48.506;9.050;2023-04-01T04:41:28;96821.69;;;10.68;71.42
13235;BME280;6683;48.506;9.050;2023-04-01T04:44:30;96823.06;;;10.70;71.22
13235;BME280;6683;48.506;9.050;2023-04-01T04:47:32;96823.88;;;10.71;71.24
13235;BME280;6683;48.506;9.050;2023-04-01T04:50:34;96819.63;;;10.70;71.25
13235;BME280;6683;48.506;9.050;2023-04-01T04:53:37;96817.78;;;10.70;71.44
13235;BME280;6683;48.506;9.050;2023-04-01T04:56:41;96821.22;;;10.71;71.64
13235;BME280;6683;48.506;9.050;2023-04-01T04:59:43;96827.91;;;10.73;71.49
13235;BME280;6683;48.506;9.050;2023-04-01T05:02:46;96825.84;;;10.75;71.74
13235;BME280;6683;48.506;9.050;2023-04-01T05:05:50;96822.22;;;10.76;71.54
13235;BME280;6683;48.506;9.050;2023-04-01T05:08:53;96815.22;;;10.82;71.76
13235;BME280;6683;48.506;9.050;2023-04-01T05:11:57;96808.47;;;10.86;71.70
13235;BME280;6683;48.506;9.050;2023-04-01T05:15:00;96817.91;;;10.93;71.78
13235;BME280;6683;48.506;9.050;2023-04-01T05:18:02;96819.66;;;10.99;71.56
13235;BME280;6683;48.506;9.050;2023-04-01T05:21:08;96818.00;;;11.05;71.72
13235;BME280;6683;48.506;9.050;2023-04-01T05:24:10;96818.91;;;11.10;71.56
13235;BME280;6683;48.506;9.050;2023-04-01T05:27:15;96811.16;;;11.15;71.70
13235;BME280;6683;48.506;9.050;2023-04-01T05:30:17;96811.25;;;11.20;71.46
13235;BME280;6683;48.506;9.050;2023-04-01T05:33:20;96811.66;;;11.24;71.48
13235;BME280;6683;48.506;9.050;2023-04-01T05:36:22;96808.53;;;11.27;71.31
13235;BME280;6683;48.506;9.050;2023-04-01T05:39:26;96814.16;;;11.31;71.21
13235;BME280;6683;48.506;9.050;2023-04-01T05:42:30;96811.31;;;11.32;71.45
13235;BME280;6683;48.506;9.050;2023-04-01T05:45:32;96806.38;;;11.36;71.42
13235;BME280;6683;48.506;9.050;2023-04-01T05:48:35;96805.13;;;11.38;71.23
13235;BME280;6683;48.506;9.050;2023-04-01T05:51:37;96808.13;;;11.42;71.11
13235;BME280;6683;48.506;9.050;2023-04-01T05:54:40;96803.22;;;11.45;71.39
13235;BME280;6683;48.506;9.050;2023-04-01T05:57:45;96800.94;;;11.49;71.45
13235;BME280;6683;48.506;9.050;2023-04-01T06:00:49;96797.94;;;11.57;71.42
13235;BME280;6683;48.506;9.050;2023-04-01T06:03:51;96790.38;;;11.60;71.26
13235;BME280;6683;48.506;9.050;2023-04-01T06:06:53;96784.66;;;11.63;71.14
13235;BME280;6683;48.506;9.050;2023-04-01T06:09:55;96790.06;;;11.68;71.33
13235;BME280;6683;48.506;9.050;2023-04-01T06:13:07;96784.91;;;11.73;71.46
13235;BME280;6683;48.506;9.050;2023-04-01T06:16:20;96789.06;;;11.81;71.31
13235;BME280;6683;48.506;9.050;2023-04-01T06:19:36;96787.13;;;11.88;71.33
13235;BME280;6683;48.506;9.050;2023-04-01T06:23:11;96780.91;;;11.94;71.48
13235;BME280;6683;48.506;9.050;2023-04-01T06:26:24;96785.28;;;12.00;71.16
13235;BME280;6683;48.506;9.050;2023-04-01T06:30:00;96782.53;;;12.07;71.33
13235;BME280;6683;48.506;9.050;2023-04-01T06:33:46;96785.28;;;12.12;70.96
13235;BME280;6683;48.506;9.050;2023-04-01T06:37:22;96782.19;;;12.15;71.08
13235;BME280;6683;48.506;9.050;2023-04-01T06:41:00;96788.41;;;12.20;70.95
13235;BME280;6683;48.506;9.050;2023-04-01T06:44:16;96780.22;;;12.22;71.04
13235;BME280;6683;48.506;9.050;2023-04-01T06:47:33;96779.75;;;12.25;70.99
13235;BME280;6683;48.506;9.050;2023-04-01T06:50:48;96777.00;;;12.31;70.91
13235;BME280;6683;48.506;9.050;2023-04-01T06:53:59;96770.19;;;12.35;70.74
13235;BME280;6683;48.506;9.050;2023-04-01T06:57:20;96770.78;;;12.37;70.74
13235;BME280;6683;48.506;9.050;2023-04-01T07:00:30;96776.19;;;12.42;70.54
13235;BME280;6683;48.506;9.050;2023-04-01T07:03:38;96767.78;;;12.45;70.36
13235;BME280;6683;48.506;9.050;2023-04-01T07:06:47;96770.78;;;12.49;70.40
13235;BME280;6683;48.506;9.050;2023-04-01T07:09:53;96764.78;;;12.53;70.41
13235;BME280;6683;48.506;9.050;2023-04-01T07:13:04;96771.44;;;12.56;70.26
13235;BME280;6683;48.506;9.050;2023-04-01T07:16:13;96774.44;;;12.59;70.27
13235;BME280;6683;48.506;9.050;2023-04-01T07:19:25;96772.94;;;12.63;70.47
13235;BME280;6683;48.506;9.050;2023-04-01T07:22:34;96770.59;;;12.67;70.01
13235;BME280;6683;48.506;9.050;2023-04-01T07:25:43;96778.88;;;12.70;69.96
13235;BME280;6683;48.506;9.050;2023-04-01T07:28:46;96776.59;;;12.74;69.97
13235;BME280;6683;48.506;9.050;2023-04-01T07:32:21;96770.81;;;12.77;70.43
13235;BME280;6683;48.506;9.050;2023-04-01T07:35:33;96770.81;;;12.77;69.88
13235;BME280;6683;48.506;9.050;2023-04-01T07:38:50;96775.53;;;12.75;70.10
13235;BME280;6683;48.506;9.050;2023-04-01T07:42:04;96774.50;;;12.76;69.95
13235;BME280;6683;48.506;9.050;2023-04-01T07:45:15;96784.16;;;12.82;70.00
13235;BME280;6683;48.506;9.050;2023-04-01T07:48:26;96782.06;;;12.84;69.85
13235;BME280;6683;48.506;9.050;2023-04-01T07:51:42;96790.34;;;12.88;69.98
13235;BME280;6683;48.506;9.050;2023-04-01T07:54:52;96788.84;;;12.92;69.71
13235;BME280;6683;48.506;9.050;2023-04-01T07:58:04;96786.75;;;12.94;69.81
13235;BME280;6683;48.506;9.050;2023-04-01T08:01:18;96789.19;;;12.95;69.90
13235;BME280;6683;48.506;9.050;2023-04-01T08:04:32;96785.50;;;12.96;69.82
13235;BME280;6683;48.506;9.050;2023-04-01T08:07:47;96795.84;;;12.98;69.74
13235;BME280;6683;48.506;9.050;2023-04-01T08:10:55;96803.56;;;12.99;69.59
13235;BME280;6683;48.506;9.050;2023-04-01T08:14:07;96793.53;;;13.01;69.65
13235;BME280;6683;48.506;9.050;2023-04-01T08:17:16;96800.69;;;13.01;69.50
13235;BME280;6683;48.506;9.050;2023-04-01T08:20:29;96807.25;;;12.98;69.35
13235;BME280;6683;48.506;9.050;2023-04-01T08:23:43;96803.47;;;12.94;69.22
13235;BME280;6683;48.506;9.050;2023-04-01T08:26:51;96803.59;;;12.88;69.23
13235;BME280;6683;48.506;9.050;2023-04-01T08:29:59;96805.91;;;12.84;69.17
13235;BME280;6683;48.506;9.050;2023-04-01T08:33:11;96808.22;;;12.80;69.47
13235;BME280;6683;48.506;9.050;2023-04-01T08:36:20;96797.84;;;12.79;69.61
13235;BME280;6683;48.506;9.050;2023-04-01T08:39:31;96810.31;;;12.78;69.64
13235;BME280;6683;48.506;9.050;2023-04-01T08:42:55;96808.00;;;12.82;70.01
13235;BME280;6683;48.506;9.050;2023-04-01T08:46:19;96805.91;;;12.84;69.85
13235;BME280;6683;48.506;9.050;2023-04-01T08:49:56;96811.78;;;12.86;69.97
13235;BME280;6683;48.506;9.050;2023-04-01T08:53:06;96808.66;;;12.89;69.92
13235;BME280;6683;48.506;9.050;2023-04-01T08:56:17;96809.00;;;12.93;69.72
13235;BME280;6683;48.506;9.050;2023-04-01T08:59:34;96814.06;;;12.94;69.72
13235;BME280;6683;48.506;9.050;2023-04-01T09:03:31;96822.81;;;12.95;69.69
13235;BME280;6683;48.506;9.050;2023-04-01T09:06:51;96814.06;;;12.94;69.52
13235;BME280;6683;48.506;9.050;2023-04-01T09:10:33;96817.63;;;12.88;69.68
13235;BME280;6683;48.506;9.050;2023-04-01T09:14:15;96830.88;;;12.88;69.71
13235;BME280;6683;48.506;9.050;2023-04-01T09:17:39;96831.13;;;12.87;69.90
13235;BME280;6683;48.506;9.050;2023-04-01T09:21:18;96830.19;;;12.93;70.31
13235;BME280;6683;48.506;9.050;2023-04-01T09:24:42;96833.03;;;13.03;70.35
13235;BME280;6683;48.506;9.050;2023-04-01T09:27:57;96841.56;;;13.05;70.04
13235;BME280;6683;48.506;9.050;2023-04-01T09:31:21;96839.94;;;13.04;69.97
13235;BME280;6683;48.506;9.050;2023-04-01T09:34:53;96837.50;;;13.02;69.68
13235;BME280;6683;48.506;9.050;2023-04-01T09:38:19;96840.41;;;13.01;70.11
13235;BME280;6683;48.506;9.050;2023-04-01T09:41:30;96853.41;;;13.02;70.11
13235;BME280;6683;48.506;9.050;2023-04-01T09:44:36;96857.09;;;13.01;69.73
13235;BME280;6683;48.506;9.050;2023-04-01T09:47:55;96857.56;;;12.98;70.16
13235;BME280;6683;48.506;9.050;2023-04-01T09:51:11;96855.97;;;12.97;70.21
13235;BME280;6683;48.506;9.050;2023-04-01T09:54:28;96856.28;;;13.01;70.19
13235;BME280;6683;48.506;9.050;2023-04-01T09:57:59;96868.06;;;13.05;70.09
13235;BME280;6683;48.506;9.050;2023-04-01T10:01:39;96868.28;;;13.03;70.18
13235;BME280;6683;48.506;9.050;2023-04-01T10:05:42;96874.72;;;12.96;69.75
13235;BME280;6683;48.506;9.050;2023-04-01T10:13:16;96866.94;;;12.77;70.00
13235;BME280;6683;48.506;9.050;2023-04-01T10:17:18;96873.16;;;12.71;70.29
13235;BME280;6683;48.506;9.050;2023-04-01T10:21:05;96864.31;;;12.66;70.43
13235;BME280;6683;48.506;9.050;2023-04-01T10:25:05;96868.47;;;12.62;70.49
13235;BME280;6683;48.506;9.050;2023-04-01T10:28:51;96878.34;;;12.55;70.64
13235;BME280;6683;48.506;9.050;2023-04-01T10:32:42;96866.50;;;12.57;71.15
13235;BME280;6683;48.506;9.050;2023-04-01T10:36:39;96867.41;;;12.63;70.95
13235;BME280;6683;48.506;9.050;2023-04-01T10:40:44;96875.22;;;12.69;71.44
13235;BME280;6683;48.506;9.050;2023-04-01T10:48:13;96880.63;;;12.86;71.09
13235;BME280;6683;48.506;9.050;2023-04-01T10:55:19;96877.94;;;12.98;71.06
13235;BME280;6683;48.506;9.050;2023-04-01T10:59:07;96871.53;;;13.05;70.78
13235;BME280;6683;48.506;9.050;2023-04-01T11:07:22;96877.41;;;13.07;71.01
13235;BME280;6683;48.506;9.050;2023-04-01T11:14:59;96881.50;;;13.26;71.36
13235;BME280;6683;48.506;9.050;2023-04-01T11:19:05;96882.50;;;13.37;71.13
13235;BME280;6683;48.506;9.050;2023-04-01T11:22:40;96885.00;;;13.43;70.97
13235;BME280;6683;48.506;9.050;2023-04-01T11:26:04;96881.31;;;13.44;70.75
13235;BME280;6683;48.506;9.050;2023-04-01T11:30:00;96880.38;;;13.50;70.74
13235;BME280;6683;48.506;9.050;2023-04-01T11:33:09;96886.22;;;13.52;70.65
13235;BME280;6683;48.506;9.050;2023-04-01T11:36:27;96884.16;;;13.54;70.54
13235;BME280;6683;48.506;9.050;2023-04-01T11:39:38;96891.63;;;13.57;70.67
13235;BME280;6683;48.506;9.050;2023-04-01T11:42:53;96897.13;;;13.68;70.82
13235;BME280;6683;48.506;9.050;2023-04-01T11:46:03;96900.78;;;13.78;70.41
13235;BME280;6683;48.506;9.050;2023-04-01T11:49:29;96900.06;;;13.83;70.33
13235;BME280;6683;48.506;9.050;2023-04-01T11:56:53;96899.31;;;13.87;70.11
13235;BME280;6683;48.506;9.050;2023-04-01T12:00:20;96899.91;;;13.89;70.19
13235;BME280;6683;48.506;9.050;2023-04-01T12:07:21;96907.53;;;13.86;70.14
13235;BME280;6683;48.506;9.050;2023-04-01T12:10:33;96911.22;;;13.85;69.83
13235;BME280;6683;48.506;9.050;2023-04-01T12:13:48;96915.41;;;13.81;69.64
13235;BME280;6683;48.506;9.050;2023-04-01T12:17:06;96921.66;;;13.75;69.73
13235;BME280;6683;48.506;9.050;2023-04-01T12:20:37;96922.44;;;13.75;70.14
13235;BME280;6683;48.506;9.050;2023-04-01T12:27:41;96917.66;;;13.89;70.06
13235;BME280;6683;48.506;9.050;2023-04-01T12:30:59;96920.97;;;13.96;70.15
13235;BME280;6683;48.506;9.050;2023-04-01T12:34:49;96923.63;;;13.96;69.59
13235;BME280;6683;48.506;9.050;2023-04-01T12:38:14;96936.31;;;13.94;69.77
13235;BME280;6683;48.506;9.050;2023-04-01T12:41:27;96924.66;;;13.95;69.66
13235;BME280;6683;48.506;9.050;2023-04-01T12:44:57;96941.47;;;14.00;69.84
13235;BME280;6683;48.506;9.050;2023-04-01T12:48:35;96930.25;;;14.10;69.80
13235;BME280;6683;48.506;9.050;2023-04-01T12:52:03;96925.69;;;14.22;69.67
13235;BME280;6683;48.506;9.050;2023-04-01T12:55:37;96932.47;;;14.29;69.43
13235;BME280;6683;48.506;9.050;2023-04-01T13:02:30;96925.16;;;14.36;69.38
13235;BME280;6683;48.506;9.050;2023-04-01T13:06:20;96917.81;;;14.43;69.26
13235;BME280;6683;48.506;9.050;2023-04-01T13:09:38;96920.25;;;14.45;69.12
13235;BME280;6683;48.506;9.050;2023-04-01T13:13:09;96916.38;;;14.53;69.18
13235;BME280;6683;48.506;9.050;2023-04-01T13:16:20;96919.53;;;14.66;68.91
13235;BME280;6683;48.506;9.050;2023-04-01T13:19:31;96914.75;;;14.85;69.15
13235;BME280;6683;48.506;9.050;2023-04-01T13:22:49;96917.38;;;15.01;68.57
13235;BME280;6683;48.506;9.050;2023-04-01T13:26:06;96918.78;;;15.09;68.55
13235;BME280;6683;48.506;9.050;2023-04-01T13:29:16;96918.88;;;15.14;68.01
13235;BME280;6683;48.506;9.050;2023-04-01T13:32:31;96916.22;;;15.14;67.84
13235;BME280;6683;48.506;9.050;2023-04-01T13:35:46;96920.47;;;15.15;68.02
13235;BME280;6683;48.506;9.050;2023-04-01T13:39:13;96915.41;;;15.13;67.67
13235;BME280;6683;48.506;9.050;2023-04-01T13:42:22;96921.75;;;15.12;67.52
13235;BME280;6683;48.506;9.050;2023-04-01T13:45:34;96912.66;;;15.08;67.11
13235;BME280;6683;48.506;9.050;2023-04-01T13:49:04;96925.22;;;15.13;67.60
13235;BME280;6683;48.506;9.050;2023-04-01T13:52:36;96920.72;;;15.13;67.29
13235;BME280;6683;48.506;9.050;2023-04-01T13:56:05;96922.81;;;15.11;67.01
13235;BME280;6683;48.506;9.050;2023-04-01T14:00:10;96935.25;;;15.06;67.25
13235;BME280;6683;48.506;9.050;2023-04-01T14:03:32;96927.00;;;15.07;67.04
13235;BME280;6683;48.506;9.050;2023-04-01T14:06:56;96923.78;;;15.05;67.01
13235;BME280;6683;48.506;9.050;2023-04-01T14:10:19;96929.13;;;15.05;66.74
13235;BME280;6683;48.506;9.050;2023-04-01T14:13:34;96926.63;;;14.99;66.22
13235;BME280;6683;48.506;9.050;2023-04-01T14:17:05;96935.84;;;14.91;66.28
13235;BME280;6683;48.506;9.050;2023-04-01T14:20:27;96931.81;;;14.89;66.65
13235;BME280;6683;48.506;9.050;2023-04-01T14:24:01;96933.66;;;14.88;66.75
13235;BME280;6683;48.506;9.050;2023-04-01T14:27:40;96942.75;;;14.92;66.82
13235;BME280;6683;48.506;9.050;2023-04-01T14:30:57;96933.97;;;14.92;66.48
13235;BME280;6683;48.506;9.050;2023-04-01T14:34:19;96945.91;;;14.89;66.55
13235;BME280;6683;48.506;9.050;2023-04-01T14:37:55;96943.47;;;14.88;66.48
13235;BME280;6683;48.506;9.050;2023-04-01T14:41:10;96945.91;;;14.89;66.64
13235;BME280;6683;48.506;9.050;2023-04-01T14:44:50;96959.41;;;14.88;66.45
13235;BME280;6683;48.506;9.050;2023-04-01T14:48:04;96958.84;;;14.86;66.56
13235;BME280;6683;48.506;9.050;2023-04-01T14:51:15;96954.25;;;14.81;66.22
13235;BME280;6683;48.506;9.050;2023-04-01T14:54:21;96954.25;;;14.81;66.36
13235;BME280;6683;48.506;9.050;2023-04-01T14:57:33;96942.84;;;14.81;66.15
13235;BME280;6683;48.506;9.050;2023-04-01T15:00:58;96946.78;;;14.78;66.56
13235;BME280;6683;48.506;9.050;2023-04-01T15:04:33;96953.13;;;14.77;66.55
13235;BME280;6683;48.506;9.050;2023-04-01T15:08:08;96963.75;;;14.77;66.44
13235;BME280;6683;48.506;9.050;2023-04-01T15:11:25;96957.88;;;14.75;66.55
13235;BME280;6683;48.506;9.050;2023-04-01T15:15:03;96965.63;;;14.77;66.52
13235;BME280;6683;48.506;9.050;2023-04-01T15:18:17;96967.13;;;14.73;66.12
13235;BME280;6683;48.506;9.050;2023-04-01T15:21:49;96965.22;;;14.68;66.33
13235;BME280;6683;48.506;9.050;2023-04-01T15:25:14;96988.47;;;14.61;66.49
13235;BME280;6683;48.506;9.050;2023-04-01T15:28:28;96979.94;;;14.59;66.79
13235;BME280;6683;48.506;9.050;2023-04-01T15:31:40;96981.78;;;14.59;66.53
13235;BME280;6683;48.506;9.050;2023-04-01T15:34:52;96982.03;;;14.57;66.52
13235;BME280;6683;48.506;9.050;2023-04-01T15:38:06;96984.13;;;14.55;66.63
13235;BME280;6683;48.506;9.050;2023-04-01T15:41:16;96993.63;;;14.51;66.19
13235;BME280;6683;48.506;9.050;2023-04-01T15:44:44;96994.09;;;14.48;66.70
13235;BME280;6683;48.506;9.050;2023-04-01T15:48:01;96991.13;;;14.45;66.34
13235;BME280;6683;48.506;9.050;2023-04-01T15:51:18;96998.22;;;14.39;66.38
13235;BME280;6683;48.506;9.050;2023-04-01T15:54:57;97005.59;;;14.37;66.66
13235;BME280;6683;48.506;9.050;2023-04-01T15:58:26;97002.38;;;14.35;66.62
13235;BME280;6683;48.506;9.050;2023-04-01T16:01:40;97001.81;;;14.33;66.54
13235;BME280;6683;48.506;9.050;2023-04-01T16:04:56;97000.44;;;14.30;66.46
13235;BME280;6683;48.506;9.050;2023-04-01T16:08:17;97002.53;;;14.28;66.59
13235;BME280;6683;48.506;9.050;2023-04-01T16:11:28;97003.53;;;14.27;66.38
13235;BME280;6683;48.506;9.050;2023-04-01T16:14:44;97004.59;;;14.26;66.29
13235;BME280;6683;48.506;9.050;2023-04-01T16:18:25;96995.00;;;14.25;66.37
13235;BME280;6683;48.506;9.050;2023-04-01T16:21:41;97001.13;;;14.26;66.39
13235;BME280;6683;48.506;9.050;2023-04-01T16:24:51;96998.47;;;14.26;66.08
13235;BME280;6683;48.506;9.050;2023-04-01T16:28:13;97000.56;;;14.24;66.32
13235;BME280;6683;48.506;9.050;2023-04-01T16:31:32;97003.22;;;14.24;66.50
13235;BME280;6683;48.506;9.050;2023-04-01T16:34:41;96996.84;;;14.25;66.20
13235;BME280;6683;48.506;9.050;2023-04-01T16:37:50;96989.94;;;14.24;66.25
13235;BME280;6683;48.506;9.050;2023-04-01T16:41:09;96997.09;;;14.23;66.41
13235;BME280;6683;48.506;9.050;2023-04-01T16:44:20;96991.22;;;14.21;66.25
13235;BME280;6683;48.506;9.050;2023-04-01T16:47:29;97000.00;;;14.22;66.13
13235;BME280;6683;48.506;9.050;2023-04-01T16:50:49;97002.06;;;14.20;66.33
13235;BME280;6683;48.506;9.050;2023-04-01T16:54:04;97000.44;;;14.19;66.54
13235;BME280;6683;48.506;9.050;2023-04-01T16:57:19;97008.91;;;14.16;66.47
13235;BME280;6683;48.506;9.050;2023-04-01T17:00:28;97001.97;;;14.15;66.45
13235;BME280;6683;48.506;9.050;2023-04-01T17:03:36;97004.88;;;14.13;66.38
13235;BME280;6683;48.506;9.050;2023-04-01T17:06:47;97001.09;;;14.09;66.51
13235;BME280;6683;48.506;9.050;2023-04-01T17:10:13;96996.22;;;14.06;66.59
13235;BME280;6683;48.506;9.050;2023-04-01T17:13:35;97010.81;;;14.04;67.04
13235;BME280;6683;48.506;9.050;2023-04-01T17:17:19;96998.81;;;14.01;66.86
13235;BME280;6683;48.506;9.050;2023-04-01T17:20:35;96995.81;;;13.98;66.94
13235;BME280;6683;48.506;9.050;2023-04-01T17:23:45;97005.06;;;13.95;66.82
13235;BME280;6683;48.506;9.050;2023-04-01T17:26:58;97014.28;;;13.93;66.88
13235;BME280;6683;48.506;9.050;2023-04-01T17:30:28;97016.38;;;13.91;67.00
13235;BME280;6683;48.506;9.050;2023-04-01T17:34:22;97017.91;;;13.87;67.10
13235;BME280;6683;48.506;9.050;2023-04-01T17:37:40;97026.88;;;13.86;67.17
13235;BME280;6683;48.506;9.050;2023-04-01T17:40:58;97028.16;;;13.83;67.09
13235;BME280;6683;48.506;9.050;2023-04-01T17:44:17;97030.03;;;13.83;67.18
13235;BME280;6683;48.506;9.050;2023-04-01T17:47:47;97034.19;;;13.79;67.04
13235;BME280;6683;48.506;9.050;2023-04-01T17:51:07;97033.38;;;13.78;67.09
13235;BME280;6683;48.506;9.050;2023-04-01T17:54:21;97043.97;;;13.78;67.19
13235;BME280;6683;48.506;9.050;2023-04-01T17:57:43;97044.44;;;13.75;67.04
13235;BME280;6683;48.506;9.050;2023-04-01T18:04:43;97049.41;;;13.72;67.31
13235;BME280;6683;48.506;9.050;2023-04-01T18:08:06;97054.13;;;13.70;67.23